Time;durP1;ratioP1;P1;durP2;ratioP2;P2;SDS_P1;SDS_P2;PMS_P1;PMS_P2;Temp;Humidity;BMP_temperature;BMP_pressure;BME280_temperature;BME280_humidity;BME280_pressure;Samples;Min_cycle;Max_cycle;Signal;HPM_P1;HPM_P2
2023/03/23 00:01:19;;;;;;;5.65;3.50;;;14.20;95.20;;;;;;5005125;28;20455;-50
2023/03/23 00:04:05;;;;;;;5.57;3.17;;;14.30;94.90;;;;;;5003652;28;20121;-54
2023/03/23 00:06:51;;;;;;;4.95;3.00;;;14.20;94.90;;;;;;5012857;28;20105;-51
2023/03/23 00:09:40;;;;;;;8.90;3.03;;;14.20;94.70;;;;;;4997693;28;20415;-50
2023/03/23 00:12:32;;;;;;;4.78;3.30;;;14.20;94.70;;;;;;4996327;28;20026;-54
2023/03/23 00:15:18;;;;;;;4.55;3.35;;;14.20;94.80;;;;;;5013497;28;20076;-54
2023/03/23 00:18:04;;;;;;;4.90;3.25;;;14.20;94.90;;;;;;4997455;28;20080;-52
2023/03/23 00:20:56;;;;;;;4.03;2.95;;;14.20;95.00;;;;;;5013004;28;20026;-50
2023/03/23 00:23:44;;;;;;;4.13;3.17;;;14.10;95.00;;;;;;4997175;28;20021;-48
2023/03/23 00:26:33;;;;;;;5.75;3.40;;;14.10;95.00;;;;;;5010896;28;20038;-48
2023/03/23 00:29:21;;;;;;;5.35;3.00;;;14.00;95.10;;;;;;5014966;28;20083;-50
2023/03/23 00:32:13;;;;;;;4.35;3.22;;;14.00;95.10;;;;;;5020995;28;20026;-53
2023/03/23 00:34:59;;;;;;;4.13;3.00;;;14.10;95.10;;;;;;5013440;28;20029;-56
2023/03/23 00:37:45;;;;;;;4.20;2.70;;;14.10;95.00;;;;;;5002451;28;20037;-50
2023/03/23 00:40:35;;;;;;;4.20;3.20;;;14.10;94.80;;;;;;5012172;28;20173;-47
2023/03/23 00:43:24;;;;;;;4.45;2.83;;;14.10;94.70;;;;;;5011216;28;20101;-52
2023/03/23 00:46:10;;;;;;;4.50;3.03;;;14.10;94.70;;;;;;5009533;28;20084;-53
2023/03/23 00:48:57;;;;;;;6.00;2.97;;;14.10;94.40;;;;;;5012697;28;20467;-49
2023/03/23 00:51:43;;;;;;;4.78;2.80;;;14.10;94.20;;;;;;5012021;28;20029;-49
2023/03/23 00:54:30;;;;;;;3.47;2.90;;;14.20;94.10;;;;;;5007568;28;20026;-54
2023/03/23 00:57:17;;;;;;;3.42;2.90;;;14.10;94.00;;;;;;4999344;28;20026;-50
2023/03/23 01:00:09;;;;;;;3.55;2.50;;;14.10;94.10;;;;;;5009285;28;20030;-48
2023/03/23 01:02:55;;;;;;;4.93;2.85;;;14.10;94.00;;;;;;5012116;28;20025;-48
2023/03/23 01:05:40;;;;;;;3.05;2.40;;;14.10;93.90;;;;;;5011284;28;20026;-47
2023/03/23 01:08:27;;;;;;;3.50;2.53;;;14.20;93.50;;;;;;5011586;28;20065;-47
2023/03/23 01:11:15;;;;;;;5.65;2.60;;;14.20;93.50;;;;;;5011096;28;20510;-51
2023/03/23 01:14:01;;;;;;;3.75;2.47;;;14.20;93.70;;;;;;5012255;28;20036;-53
2023/03/23 01:16:47;;;;;;;3.95;2.33;;;14.30;93.30;;;;;;5010544;28;20033;-49
2023/03/23 01:19:33;;;;;;;2.63;2.17;;;14.30;93.10;;;;;;5011528;28;20029;-47
2023/03/23 01:22:19;;;;;;;3.40;2.60;;;14.50;92.80;;;;;;4992464;28;20037;-48
2023/03/23 01:25:06;;;;;;;3.75;2.67;;;14.50;92.70;;;;;;4993801;28;20491;-48
2023/03/23 01:27:52;;;;;;;3.63;2.67;;;14.50;92.90;;;;;;5011439;28;20402;-47
2023/03/23 01:30:41;;;;;;;4.00;2.78;;;14.50;92.90;;;;;;4996482;28;20112;-48
2023/03/23 01:33:27;;;;;;;4.97;2.80;;;14.40;93.30;;;;;;5011367;28;20053;-47
2023/03/23 01:36:19;;;;;;;4.15;2.60;;;14.40;93.30;;;;;;5009652;28;20026;-49
2023/03/23 01:39:06;;;;;;;3.65;2.65;;;14.30;93.30;;;;;;5011450;28;20049;-47
2023/03/23 01:41:51;;;;;;;5.57;2.45;;;14.30;93.40;;;;;;5002393;28;20530;-48
2023/03/23 01:44:37;;;;;;;3.88;2.65;;;14.30;93.40;;;;;;4997258;28;20030;-50
2023/03/23 01:47:26;;;;;;;2.80;2.35;;;14.30;93.60;;;;;;5011507;28;20053;-51
2023/03/23 01:50:12;;;;;;;4.57;2.63;;;14.20;93.90;;;;;;5014791;28;20113;-52
2023/03/23 01:53:01;;;;;;;3.10;2.65;;;14.20;93.80;;;;;;4992109;28;20089;-50
2023/03/23 01:55:50;;;;;;;3.15;2.40;;;14.20;93.90;;;;;;5005920;28;20030;-52
2023/03/23 01:58:37;;;;;;;2.95;2.30;;;14.20;93.80;;;;;;5011679;28;20030;-49
2023/03/23 02:01:24;;;;;;;2.97;2.35;;;14.10;93.90;;;;;;5012050;28;20034;-52
2023/03/23 02:04:16;;;;;;;3.53;2.70;;;14.10;94.00;;;;;;5009693;28;20093;-52
2023/03/23 02:07:03;;;;;;;4.47;2.85;;;14.20;94.00;;;;;;5011707;28;20402;-51
2023/03/23 02:09:51;;;;;;;4.43;2.80;;;14.20;93.90;;;;;;5011177;28;20388;-50
2023/03/23 02:12:37;;;;;;;3.75;2.38;;;14.20;94.00;;;;;;5011708;28;20022;-52
2023/03/23 02:15:27;;;;;;;5.00;2.90;;;14.30;93.90;;;;;;5013481;28;20030;-49
2023/03/23 02:18:20;;;;;;;3.15;2.30;;;14.30;93.90;;;;;;5014587;28;20117;-51
2023/03/23 02:21:14;;;;;;;3.55;2.50;;;14.20;93.80;;;;;;5015441;28;20676;-52
2023/03/23 02:24:41;;;;;;;4.07;2.63;;;14.30;93.80;;;;;;5013527;28;20022;-51
2023/03/23 02:27:39;;;;;;;3.80;2.70;;;14.30;93.90;;;;;;5006461;28;20375;-56
2023/03/23 02:30:56;;;;;;;3.05;2.40;;;14.20;93.90;;;;;;5011914;28;20490;-52
2023/03/23 02:33:46;;;;;;;3.70;2.17;;;14.30;94.00;;;;;;5014924;28;20061;-53
2023/03/23 02:36:43;;;;;;;3.50;2.30;;;14.20;93.90;;;;;;5014689;28;20109;-54
2023/03/23 02:39:39;;;;;;;3.72;2.47;;;14.40;93.70;;;;;;5015202;28;20790;-53
2023/03/23 02:42:31;;;;;;;6.63;3.30;;;14.40;93.50;;;;;;5015077;28;20068;-53
2023/03/23 02:45:20;;;;;;;3.97;2.40;;;14.50;93.30;;;;;;5012834;28;20021;-51
2023/03/23 02:48:08;;;;;;;3.22;2.30;;;14.60;93.10;;;;;;5012978;28;20038;-51
2023/03/23 02:50:55;;;;;;;4.93;2.33;;;14.60;93.10;;;;;;5014793;28;20030;-53
2023/03/23 02:53:43;;;;;;;3.65;2.22;;;14.60;93.00;;;;;;5000862;28;20038;-51
2023/03/23 02:56:32;;;;;;;4.85;2.42;;;14.60;93.00;;;;;;4993576;28;20384;-52
2023/03/23 02:59:18;;;;;;;3.17;2.55;;;14.60;92.70;;;;;;5010053;28;20478;-48
2023/03/23 03:02:36;;;;;;;2.85;2.20;;;14.60;92.90;;;;;;5013643;28;20037;-54
2023/03/23 03:05:50;;;;;;;3.47;2.50;;;14.70;92.90;;;;;;5000766;28;20026;-48
2023/03/23 03:08:52;;;;;;;5.40;2.83;;;14.70;92.90;;;;;;5013742;28;20029;-50
2023/03/23 03:11:42;;;;;;;3.00;2.40;;;14.50;93.00;;;;;;5012416;28;20028;-52
2023/03/23 03:14:37;;;;;;;2.53;2.30;;;14.60;93.00;;;;;;5012106;28;20029;-54
2023/03/23 03:17:24;;;;;;;;;;;14.50;93.10;;;;;;5014168;28;20034;-48
2023/03/23 03:20:13;;;;;;;2.88;2.55;;;14.50;92.90;;;;;;5015089;28;19916;-49
2023/03/23 03:23:00;;;;;;;3.22;2.67;;;14.50;93.10;;;;;;5012606;28;20072;-50
2023/03/23 03:25:48;;;;;;;5.15;2.58;;;14.50;93.10;;;;;;5013421;28;20081;-49
2023/03/23 03:28:34;;;;;;;3.47;2.60;;;14.50;93.20;;;;;;5011331;28;20041;-50
2023/03/23 03:31:27;;;;;;;3.17;2.30;;;14.50;93.20;;;;;;5011826;28;20503;-54
2023/03/23 03:34:17;;;;;;;3.30;2.30;;;14.60;93.20;;;;;;5013231;28;20036;-49
2023/03/23 03:37:05;;;;;;;6.70;2.40;;;14.50;93.30;;;;;;5012162;28;20048;-50
2023/03/23 03:39:51;;;;;;;3.47;2.88;;;14.50;93.30;;;;;;5012258;28;20026;-53
2023/03/23 03:42:41;;;;;;;5.57;2.65;;;14.50;93.30;;;;;;5009152;28;20026;-51
2023/03/23 03:45:27;;;;;;;4.32;2.50;;;14.40;93.40;;;;;;4993521;28;20407;-52
2023/03/23 03:48:13;;;;;;;3.65;2.55;;;14.40;93.60;;;;;;4999078;28;20034;-50
2023/03/23 03:51:00;;;;;;;2.80;2.35;;;14.40;93.60;;;;;;5012829;28;20037;-49
2023/03/23 03:53:46;;;;;;;2.83;2.30;;;14.40;93.60;;;;;;4992324;28;20045;-48
2023/03/23 03:56:35;;;;;;;3.28;2.83;;;14.30;93.70;;;;;;5007676;28;20033;-51
2023/03/23 03:59:21;;;;;;;3.40;2.60;;;14.30;93.80;;;;;;5012620;28;20569;-51
2023/03/23 04:02:08;;;;;;;3.40;2.78;;;14.30;94.00;;;;;;5012497;28;20037;-55
2023/03/23 04:04:54;;;;;;;3.97;2.63;;;14.30;94.10;;;;;;5013726;28;20033;-48
2023/03/23 04:07:41;;;;;;;3.45;2.55;;;14.20;94.10;;;;;;5013120;28;20029;-51
2023/03/23 04:10:28;;;;;;;6.03;2.90;;;14.10;94.20;;;;;;5011234;28;20026;-52
2023/03/23 04:13:15;;;;;;;4.75;2.60;;;14.10;94.40;;;;;;5013162;28;20045;-49
2023/03/23 04:16:01;;;;;;;4.13;2.75;;;14.10;94.40;;;;;;5013304;28;20030;-50
2023/03/23 04:18:48;;;;;;;4.00;3.05;;;14.10;94.40;;;;;;5012429;28;20029;-50
2023/03/23 04:21:34;;;;;;;4.10;2.60;;;14.10;94.40;;;;;;5012210;28;20038;-53
2023/03/23 04:24:21;;;;;;;6.63;3.38;;;14.20;94.30;;;;;;5012299;28;20041;-52
2023/03/23 04:27:07;;;;;;;4.03;2.60;;;14.20;94.30;;;;;;5011101;28;20022;-54
2023/03/23 04:29:52;;;;;;;4.82;2.60;;;14.20;94.20;;;;;;5012531;28;20036;-52
2023/03/23 04:32:42;;;;;;;4.18;2.58;;;14.20;94.20;;;;;;5012253;28;20026;-51
2023/03/23 04:35:29;;;;;;;3.30;2.65;;;14.20;94.20;;;;;;5010725;28;20109;-52
2023/03/23 04:38:16;;;;;;;3.10;2.60;;;14.30;94.20;;;;;;5010513;28;20521;-49
2023/03/23 04:41:02;;;;;;;4.15;2.70;;;14.20;94.20;;;;;;5011591;28;20611;-56
2023/03/23 04:43:52;;;;;;;5.25;2.80;;;14.30;94.20;;;;;;5013491;28;20097;-55
2023/03/23 04:46:38;;;;;;;4.97;2.78;;;14.30;94.30;;;;;;5012900;28;20026;-56
2023/03/23 04:49:24;;;;;;;3.42;2.50;;;14.20;94.30;;;;;;5010291;28;20069;-51
2023/03/23 04:52:10;;;;;;;3.80;2.72;;;14.20;94.30;;;;;;5012029;28;20552;-56
2023/03/23 04:54:56;;;;;;;4.13;2.65;;;14.20;94.40;;;;;;4992455;28;20097;-54
2023/03/23 04:57:42;;;;;;;3.88;2.55;;;14.10;94.50;;;;;;4993267;28;20444;-53
2023/03/23 05:00:28;;;;;;;6.43;2.60;;;14.20;94.50;;;;;;5012470;28;20037;-51
2023/03/23 05:03:17;;;;;;;3.75;2.60;;;14.20;94.50;;;;;;5012043;28;20061;-55
2023/03/23 05:06:03;;;;;;;3.67;2.65;;;14.20;94.70;;;;;;5011215;28;20026;-53
2023/03/23 05:08:49;;;;;;;3.03;2.40;;;14.20;94.80;;;;;;5011163;28;20040;-56
2023/03/23 05:11:35;;;;;;;4.35;2.80;;;14.20;94.70;;;;;;5011414;28;20030;-55
2023/03/23 05:14:21;;;;;;;3.00;2.67;;;14.20;94.80;;;;;;5011277;28;20041;-51
2023/03/23 05:17:08;;;;;;;5.47;2.70;;;14.10;95.00;;;;;;5011697;28;20095;-53
2023/03/23 05:19:56;;;;;;;7.00;3.55;;;14.00;95.20;;;;;;5009931;28;20422;-52
2023/03/23 05:22:44;;;;;;;5.97;2.78;;;14.00;95.20;;;;;;5011147;28;20018;-49
2023/03/23 05:25:30;;;;;;;3.45;2.67;;;13.90;95.40;;;;;;5011144;28;20049;-52
2023/03/23 05:28:16;;;;;;;4.45;3.00;;;13.90;95.60;;;;;;5010715;28;20491;-50
2023/03/23 05:31:02;;;;;;;4.53;2.67;;;13.90;95.80;;;;;;5011789;28;20029;-55
2023/03/23 05:33:47;;;;;;;6.07;2.75;;;13.90;95.80;;;;;;4997818;28;20093;-52
2023/03/23 05:36:34;;;;;;;3.63;2.38;;;13.90;95.90;;;;;;4996151;28;20026;-50
2023/03/23 05:39:20;;;;;;;5.30;3.00;;;13.80;96.20;;;;;;4992357;28;20031;-52
2023/03/23 05:42:07;;;;;;;3.30;2.42;;;13.80;96.30;;;;;;4993810;28;20507;-50
2023/03/23 05:44:53;;;;;;;5.18;2.90;;;13.70;96.40;;;;;;5010288;28;20508;-50
2023/03/23 05:47:40;;;;;;;6.82;2.70;;;13.70;96.70;;;;;;5012769;28;20030;-54
2023/03/23 05:50:27;;;;;;;4.65;2.67;;;13.70;97.00;;;;;;5016347;28;20064;-52
2023/03/23 05:53:13;;;;;;;5.75;2.85;;;13.70;97.30;;;;;;5016187;28;20038;-53
2023/03/23 05:56:00;;;;;;;3.72;2.45;;;13.60;97.50;;;;;;5016164;28;20116;-54
2023/03/23 05:58:46;;;;;;;4.63;2.92;;;13.70;97.50;;;;;;5003838;28;20032;-52
2023/03/23 06:01:32;;;;;;;4.35;2.50;;;13.60;97.90;;;;;;5014403;28;20113;-54
2023/03/23 06:04:18;;;;;;;3.25;2.70;;;13.50;98.20;;;;;;5000349;28;20427;-54
2023/03/23 06:07:04;;;;;;;6.05;2.60;;;13.50;98.50;;;;;;5015235;28;20508;-51
2023/03/23 06:09:51;;;;;;;3.60;2.80;;;13.40;98.90;;;;;;5014274;28;20493;-55
2023/03/23 06:12:38;;;;;;;3.30;2.60;;;13.40;99.10;;;;;;5014061;28;20113;-52
2023/03/23 06:15:24;;;;;;;4.93;2.63;;;13.30;99.20;;;;;;5014574;28;20108;-49
2023/03/23 06:18:12;;;;;;;3.25;2.63;;;13.50;98.90;;;;;;5014140;28;20030;-50
2023/03/23 06:20:58;;;;;;;3.13;2.47;;;13.40;99.30;;;;;;5015047;28;20034;-49
2023/03/23 06:23:45;;;;;;;3.30;2.58;;;13.30;99.60;;;;;;5013542;28;20493;-50
2023/03/23 06:26:37;;;;;;;8.52;3.40;;;13.20;99.80;;;;;;5001491;28;20022;-50
2023/03/23 06:29:23;;;;;;;3.42;2.53;;;13.10;99.90;;;;;;5015174;28;20663;-55
2023/03/23 06:32:11;;;;;;;6.85;4.00;;;13.10;99.90;;;;;;5013671;28;20482;-56
2023/03/23 06:34:57;;;;;;;5.38;2.78;;;13.20;99.90;;;;;;5013246;28;20068;-53
2023/03/23 06:37:43;;;;;;;4.03;2.90;;;13.10;99.90;;;;;;5014694;28;20097;-53
2023/03/23 06:40:29;;;;;;;3.10;2.47;;;13.10;99.90;;;;;;4999371;28;20026;-52
2023/03/23 06:43:14;;;;;;;3.70;2.50;;;13.10;99.90;;;;;;5013975;28;20033;-56
2023/03/23 06:46:01;;;;;;;4.53;3.47;;;13.10;99.90;;;;;;5013558;28;20026;-57
2023/03/23 06:48:49;;;;;;;4.00;2.78;;;12.90;99.90;;;;;;5012859;28;20041;-53
2023/03/23 06:51:36;;;;;;;5.35;2.97;;;12.90;99.90;;;;;;5014664;28;20030;-55
2023/03/23 06:54:22;;;;;;;5.20;3.35;;;12.90;99.90;;;;;;4995035;28;20041;-50
2023/03/23 06:57:08;;;;;;;4.40;2.83;;;12.90;99.90;;;;;;4996133;28;20396;-53
2023/03/23 06:59:54;;;;;;;5.57;3.00;;;12.80;99.90;;;;;;5013055;28;20038;-51
2023/03/23 07:02:40;;;;;;;4.40;2.67;;;12.80;99.90;;;;;;5012983;28;20026;-55
2023/03/23 07:05:27;;;;;;;4.43;2.80;;;12.80;99.90;;;;;;5014542;28;20022;-51
2023/03/23 07:08:13;;;;;;;3.25;2.70;;;12.90;99.90;;;;;;5013518;28;20030;-52
2023/03/23 07:10:58;;;;;;;4.55;2.97;;;12.80;99.90;;;;;;5013906;28;20029;-50
2023/03/23 07:13:46;;;;;;;3.55;2.65;;;12.90;99.90;;;;;;5014130;28;20053;-52
2023/03/23 07:16:31;;;;;;;5.88;2.85;;;12.90;99.90;;;;;;5015274;28;20521;-53
2023/03/23 07:19:17;;;;;;;3.75;2.72;;;12.90;99.90;;;;;;5000789;28;20499;-53
2023/03/23 07:22:07;;;;;;;3.85;2.80;;;12.90;99.90;;;;;;4994912;28;20455;-48
2023/03/23 07:24:53;;;;;;;6.65;3.00;;;12.80;99.90;;;;;;4998819;28;20538;-49
2023/03/23 07:27:38;;;;;;;4.25;2.80;;;12.90;99.90;;;;;;4998745;28;20030;-54
2023/03/23 07:30:25;;;;;;;5.75;3.20;;;12.90;99.90;;;;;;4995778;28;20030;-50
2023/03/23 07:33:12;;;;;;;4.18;2.80;;;12.90;99.90;;;;;;4997437;28;20031;-52
2023/03/23 07:36:02;;;;;;;4.90;2.88;;;13.00;99.90;;;;;;5001362;28;20101;-54
2023/03/23 07:38:48;;;;;;;5.30;3.30;;;13.10;99.90;;;;;;4981905;28;20073;-49
2023/03/23 07:41:35;;;;;;;7.63;3.22;;;13.10;99.90;;;;;;5011939;28;20033;-51
2023/03/23 07:44:21;;;;;;;4.00;3.20;;;13.20;99.90;;;;;;5028671;28;20029;-51
2023/03/23 07:47:07;;;;;;;4.68;3.03;;;13.10;99.90;;;;;;5037963;28;20036;-51
2023/03/23 07:49:53;;;;;;;4.72;3.22;;;13.10;99.90;;;;;;5032971;28;20029;-51
2023/03/23 07:52:41;;;;;;;4.80;3.28;;;13.10;99.90;;;;;;5031212;28;20434;-51
2023/03/23 07:55:27;;;;;;;4.63;3.30;;;13.30;99.90;;;;;;5022923;28;20037;-47
2023/03/23 07:58:18;;;;;;;6.60;3.55;;;13.20;99.90;;;;;;5031511;28;20080;-51
2023/03/23 08:01:04;;;;;;;4.18;3.50;;;13.20;99.90;;;;;;5015167;28;20541;-49
2023/03/23 08:03:51;;;;;;;5.45;3.13;;;13.30;99.90;;;;;;5011549;28;20029;-48
2023/03/23 08:06:39;;;;;;;3.38;2.88;;;13.20;99.90;;;;;;5009583;28;20018;-52
2023/03/23 08:09:25;;;;;;;6.50;3.60;;;13.30;99.90;;;;;;5010940;28;20137;-49
2023/03/23 08:12:11;;;;;;;3.80;2.90;;;13.40;99.90;;;;;;4997620;28;20030;-50
2023/03/23 08:14:59;;;;;;;3.33;3.03;;;13.40;99.90;;;;;;5009802;28;20037;-48
2023/03/23 08:17:45;;;;;;;3.72;2.90;;;13.50;99.90;;;;;;5009796;28;20120;-48
2023/03/23 08:20:32;;;;;;;3.80;3.20;;;13.60;99.90;;;;;;4997146;28;20112;-49
2023/03/23 08:23:18;;;;;;;3.53;3.22;;;13.70;99.90;;;;;;5012640;28;20030;-52
2023/03/23 08:26:07;;;;;;;5.65;3.97;;;13.70;99.90;;;;;;5003789;28;20058;-53
2023/03/23 08:28:53;;;;;;;4.47;3.30;;;13.80;99.90;;;;;;5002707;28;20041;-53
2023/03/23 08:31:39;;;;;;;9.15;3.90;;;13.90;99.90;;;;;;4991727;28;20113;-50
2023/03/23 08:34:25;;;;;;;4.90;3.17;;;13.80;99.90;;;;;;4991424;28;20076;-50
2023/03/23 08:37:11;;;;;;;6.68;3.28;;;13.90;99.90;;;;;;4992023;28;20452;-51
2023/03/23 08:39:58;;;;;;;5.00;3.20;;;14.10;99.90;;;;;;4991888;28;20041;-52
2023/03/23 08:42:44;;;;;;;3.92;3.15;;;14.30;99.90;;;;;;4991604;28;20031;-51
2023/03/23 08:45:30;;;;;;;4.80;3.40;;;14.30;99.90;;;;;;4992700;28;20025;-49
2023/03/23 08:48:17;;;;;;;4.20;3.33;;;14.50;99.90;;;;;;4992151;28;20495;-51
2023/03/23 08:51:05;;;;;;;4.47;3.28;;;14.50;99.90;;;;;;4993509;28;20030;-52
2023/03/23 08:53:52;;;;;;;6.55;3.60;;;14.60;99.90;;;;;;4992209;28;20026;-50
2023/03/23 08:56:38;;;;;;;4.35;3.00;;;14.60;99.90;;;;;;4991319;28;20042;-49
2023/03/23 08:59:25;;;;;;;4.82;3.20;;;14.40;99.90;;;;;;4990923;28;20039;-51
2023/03/23 09:02:14;;;;;;;4.15;3.17;;;14.30;99.90;;;;;;4991418;28;20038;-52
2023/03/23 09:05:01;;;;;;;10.75;3.65;;;14.30;99.90;;;;;;4992955;28;20410;-50
2023/03/23 09:07:49;;;;;;;7.38;3.30;;;14.20;99.90;;;;;;4993301;28;20034;-51
2023/03/23 09:10:35;;;;;;;4.90;3.13;;;14.30;99.90;;;;;;5007364;28;20038;-49
2023/03/23 09:13:21;;;;;;;4.85;3.20;;;14.30;99.90;;;;;;4992451;28;20057;-49
2023/03/23 09:16:08;;;;;;;3.88;3.22;;;14.20;99.90;;;;;;4991092;28;20061;-49
2023/03/23 09:18:56;;;;;;;3.85;3.42;;;14.20;99.90;;;;;;4988066;28;20037;-48
2023/03/23 09:21:42;;;;;;;5.93;3.80;;;14.40;99.90;;;;;;5011582;28;20064;-49
2023/03/23 09:24:28;;;;;;;5.40;3.25;;;14.50;99.90;;;;;;5012036;28;20510;-53
2023/03/23 09:27:14;;;;;;;7.70;3.35;;;14.50;99.90;;;;;;5010160;28;20086;-48
2023/03/23 09:30:00;;;;;;;4.15;3.40;;;14.60;99.90;;;;;;5011306;28;20030;-48
2023/03/23 09:32:48;;;;;;;4.50;3.33;;;14.60;99.90;;;;;;5013079;28;20041;-52
2023/03/23 09:35:36;;;;;;;4.10;3.28;;;14.60;99.90;;;;;;5011532;28;20380;-49
2023/03/23 09:38:22;;;;;;;4.70;3.60;;;14.60;99.90;;;;;;5010501;28;20026;-51
2023/03/23 09:41:59;;;;;;;5.40;3.50;;;14.70;99.90;;;;;;5010810;28;20062;-50
2023/03/23 09:45:01;;;;;;;;;;;14.70;99.90;;;;;;5011933;28;20030;-50
2023/03/23 09:48:06;;;;;;;6.60;3.92;;;14.70;99.90;;;;;;5009272;28;19957;-48
2023/03/23 09:51:02;;;;;;;4.03;3.63;;;14.80;99.90;;;;;;4997436;28;20402;-50
2023/03/23 09:53:52;;;;;;;5.55;3.72;;;14.90;99.90;;;;;;5007070;28;20034;-48
2023/03/23 09:56:40;;;;;;;4.95;3.10;;;14.90;99.90;;;;;;4999091;28;20088;-51
2023/03/23 09:59:46;;;;;;;4.28;2.95;;;15.00;99.90;;;;;;5007146;28;20036;-48
2023/03/23 10:02:56;;;;;;;4.93;3.40;;;15.10;99.80;;;;;;5010020;28;20018;-49
2023/03/23 10:05:47;;;;;;;4.07;3.20;;;15.10;99.30;;;;;;5010438;28;20402;-50
2023/03/23 10:08:34;;;;;;;4.18;2.90;;;15.10;99.10;;;;;;5009366;28;20032;-48
2023/03/23 10:11:59;;;;;;;4.18;3.08;;;15.20;99.00;;;;;;5010314;28;20033;-50
2023/03/23 10:15:10;;;;;;;4.95;3.08;;;15.20;98.70;;;;;;4981424;28;20037;-49
2023/03/23 10:18:36;;;;;;;4.45;2.95;;;15.20;98.80;;;;;;5007891;28;20034;-52
2023/03/23 10:21:23;;;;;;;3.90;3.35;;;15.20;98.50;;;;;;4989845;28;20116;-46
2023/03/23 10:24:13;;;;;;;3.55;3.17;;;15.30;98.80;;;;;;5011646;28;20455;-46
2023/03/23 10:27:14;;;;;;;5.57;3.00;;;15.30;98.40;;;;;;5011107;28;20033;-55
2023/03/23 10:30:13;;;;;;;4.38;2.88;;;15.40;98.30;;;;;;5010719;28;20097;-47
2023/03/23 10:33:17;;;;;;;3.35;3.03;;;15.40;98.10;;;;;;5010633;28;20033;-48
2023/03/23 10:36:28;;;;;;;4.00;2.95;;;15.50;97.60;;;;;;5013946;28;20394;-51
2023/03/23 10:39:23;;;;;;;3.15;2.75;;;15.50;97.90;;;;;;5014290;28;20037;-51
2023/03/23 10:42:09;;;;;;;3.92;2.80;;;15.60;97.40;;;;;;5010000;28;20030;-48
2023/03/23 10:44:57;;;;;;;3.80;2.70;;;15.70;97.40;;;;;;4990357;28;20038;-47
2023/03/23 10:47:51;;;;;;;6.55;2.88;;;15.70;97.20;;;;;;5010914;28;20030;-51
2023/03/23 10:50:39;;;;;;;5.57;3.17;;;15.60;97.10;;;;;;5006743;28;20092;-50
2023/03/23 10:53:32;;;;;;;5.38;3.13;;;15.70;97.40;;;;;;5014616;28;20070;-50
2023/03/23 10:56:23;;;;;;;6.32;2.72;;;15.90;96.50;;;;;;5004555;28;20026;-49
2023/03/23 10:59:20;;;;;;;5.25;2.90;;;15.70;96.30;;;;;;5011444;28;20037;-52
2023/03/23 11:02:16;;;;;;;3.47;2.67;;;15.60;96.20;;;;;;4995610;28;20027;-49
2023/03/23 11:05:12;;;;;;;3.58;2.30;;;15.60;96.40;;;;;;4994661;28;20061;-47
2023/03/23 11:08:01;;;;;;;6.38;3.10;;;15.60;96.20;;;;;;4981144;28;20035;-50
2023/03/23 11:10:56;;;;;;;4.55;3.00;;;15.60;96.40;;;;;;5009518;28;20475;-51
2023/03/23 11:13:44;;;;;;;4.18;2.58;;;15.70;96.60;;;;;;5017592;28;20053;-50
2023/03/23 11:16:33;;;;;;;3.95;2.80;;;15.70;95.90;;;;;;5009321;28;20114;-50
2023/03/23 11:19:26;;;;;;;4.35;2.50;;;15.70;95.50;;;;;;5013856;28;20034;-53
2023/03/23 11:22:31;;;;;;;2.90;2.47;;;15.60;95.30;;;;;;5014592;28;20063;-50
2023/03/23 11:25:17;;;;;;;4.45;2.92;;;15.60;95.60;;;;;;5014125;28;20030;-49
2023/03/23 11:28:03;;;;;;;5.20;2.75;;;15.60;95.80;;;;;;5013666;28;20068;-48
2023/03/23 11:30:54;;;;;;;4.40;2.53;;;15.70;96.10;;;;;;5003368;28;20042;-49
2023/03/23 11:34:00;;;;;;;4.15;2.60;;;15.80;95.80;;;;;;4994722;28;20110;-50
2023/03/23 11:37:00;;;;;;;4.68;2.65;;;15.70;95.30;;;;;;4993948;28;20042;-52
2023/03/23 11:40:00;;;;;;;5.85;3.00;;;15.70;95.50;;;;;;5013954;28;20117;-51
2023/03/23 11:42:53;;;;;;;5.13;2.88;;;15.70;95.60;;;;;;5012828;28;21956;-52
2023/03/23 11:46:11;;;;;;;3.80;2.65;;;15.70;95.80;;;;;;5012395;28;20407;-51
2023/03/23 11:49:15;;;;;;;3.88;2.65;;;15.70;95.60;;;;;;5014145;28;20073;-49
2023/03/23 11:52:11;;;;;;;3.53;2.70;;;15.70;95.70;;;;;;5013966;28;20061;-50
2023/03/23 11:55:26;;;;;;;5.75;3.28;;;15.70;95.90;;;;;;5012529;28;20490;-55
2023/03/23 11:58:15;;;;;;;5.68;2.65;;;15.60;96.20;;;;;;4992889;28;20031;-52
2023/03/23 12:01:25;;;;;;;4.85;2.85;;;15.70;96.10;;;;;;4983417;28;20026;-54
2023/03/23 12:04:45;;;;;;;5.85;3.10;;;15.80;96.30;;;;;;5012245;28;20104;-50
2023/03/23 12:07:56;;;;;;;3.00;2.40;;;15.70;96.00;;;;;;5011823;28;20556;-52
2023/03/23 12:11:00;;;;;;;4.32;2.67;;;15.70;96.20;;;;;;5013594;28;20026;-54
2023/03/23 12:13:55;;;;;;;4.65;2.58;;;15.80;96.20;;;;;;5011242;28;20585;-55
2023/03/23 12:17:13;;;;;;;3.20;2.90;;;15.90;96.20;;;;;;5011769;28;20030;-50
2023/03/23 12:20:28;;;;;;;5.28;3.08;;;16.00;96.40;;;;;;4979739;28;20498;-51
2023/03/23 12:23:25;;;;;;;3.75;3.15;;;16.20;96.30;;;;;;5012760;28;20040;-56
2023/03/23 12:26:26;;;;;;;5.72;3.13;;;16.20;96.00;;;;;;5011918;28;20478;-53
2023/03/23 12:29:38;;;;;;;4.47;2.95;;;16.20;96.10;;;;;;5011983;28;20036;-57
2023/03/23 12:32:32;;;;;;;4.60;2.85;;;16.30;96.20;;;;;;4994768;28;20095;-47
2023/03/23 12:35:42;;;;;;;4.10;2.78;;;16.30;96.30;;;;;;5012195;28;20022;-55
2023/03/23 12:38:57;;;;;;;3.35;2.60;;;16.40;96.20;;;;;;5011311;28;20018;-51
2023/03/23 12:42:11;;;;;;;3.20;2.83;;;16.50;95.90;;;;;;4988058;28;20023;-51
2023/03/23 12:45:23;;;;;;;3.47;2.75;;;16.60;95.30;;;;;;5011026;28;20088;-49
2023/03/23 12:48:16;;;;;;;3.95;2.55;;;16.60;94.70;;;;;;5007886;28;20033;-47
2023/03/23 12:51:08;;;;;;;2.92;2.35;;;16.30;93.60;;;;;;5011514;28;20026;-48
2023/03/23 12:54:02;;;;;;;2.95;2.40;;;16.30;93.60;;;;;;5011642;28;20064;-50
2023/03/23 12:57:04;;;;;;;2.53;2.30;;;16.30;94.00;;;;;;5007929;28;20030;-53
2023/03/23 12:59:50;;;;;;;3.50;2.88;;;16.30;94.10;;;;;;4992003;28;20041;-50
2023/03/23 13:02:50;;;;;;;3.78;2.78;;;16.20;94.10;;;;;;5011196;28;20286;-56
2023/03/23 13:05:46;;;;;;;4.63;2.30;;;16.10;93.90;;;;;;5011953;28;20026;-53
2023/03/23 13:08:38;;;;;;;6.50;2.92;;;16.10;93.20;;;;;;4992373;28;20023;-53
2023/03/23 13:11:46;;;;;;;3.55;2.30;;;16.00;93.10;;;;;;4998798;28;20030;-59
2023/03/23 13:14:51;;;;;;;3.15;2.58;;;16.00;93.40;;;;;;5011775;28;20029;-56
2023/03/23 13:17:54;;;;;;;4.55;2.67;;;16.00;93.40;;;;;;5010254;28;20022;-51
2023/03/23 13:20:50;;;;;;;2.67;2.10;;;16.00;93.50;;;;;;5012315;28;20087;-54
2023/03/23 13:23:43;;;;;;;5.15;2.40;;;15.90;93.70;;;;;;5010661;28;20117;-52
2023/03/23 13:26:31;;;;;;;4.05;3.08;;;15.70;94.20;;;;;;5010198;28;20486;-53
2023/03/23 13:29:24;;;;;;;3.88;2.80;;;15.70;94.40;;;;;;5012035;28;20053;-54
2023/03/23 13:32:17;;;;;;;6.85;2.63;;;15.80;94.60;;;;;;5012107;28;20161;-51
2023/03/23 13:35:11;;;;;;;2.78;2.40;;;15.80;94.80;;;;;;5011625;28;20109;-54
2023/03/23 13:37:58;;;;;;;2.28;2.00;;;15.80;95.30;;;;;;5011546;28;20030;-52
2023/03/23 13:40:45;;;;;;;3.78;2.92;;;15.80;95.20;;;;;;5011576;28;20030;-60
2023/03/23 13:43:35;;;;;;;6.72;2.65;;;15.80;95.20;;;;;;4996725;28;20042;-59
2023/03/23 13:46:26;;;;;;;4.75;2.60;;;15.80;95.20;;;;;;5009913;28;20643;-56
2023/03/23 13:49:20;;;;;;;3.42;2.72;;;15.80;95.20;;;;;;5011887;28;20030;-63
2023/03/23 13:52:15;;;;;;;2.88;2.40;;;15.90;95.20;;;;;;4997889;28;20406;-62
2023/03/23 13:55:30;;;;;;;2.50;2.28;;;15.90;95.10;;;;;;5011097;28;20096;-62
2023/03/23 13:58:24;;;;;;;3.13;2.58;;;15.90;95.10;;;;;;5010767;28;20061;-56
2023/03/23 14:01:18;;;;;;;3.92;2.60;;;15.80;95.80;;;;;;5012296;28;20030;-56
2023/03/23 14:04:10;;;;;;;2.90;2.50;;;15.80;95.50;;;;;;5010546;28;20033;-53
2023/03/23 14:06:55;;;;;;;2.90;2.47;;;16.00;95.20;;;;;;5009699;28;20414;-50
2023/03/23 14:09:44;;;;;;;4.28;2.55;;;16.30;94.80;;;;;;4995987;28;20034;-55
2023/03/23 14:12:31;;;;;;;3.33;2.88;;;16.40;94.90;;;;;;5002990;28;20096;-52
2023/03/23 14:15:17;;;;;;;3.28;2.58;;;16.70;94.90;;;;;;5009111;28;20041;-54
2023/03/23 14:18:04;;;;;;;4.32;2.60;;;16.70;95.00;;;;;;5013267;28;20030;-55
2023/03/23 14:20:50;;;;;;;3.50;2.70;;;16.30;95.20;;;;;;5016494;28;20398;-50
2023/03/23 14:23:36;;;;;;;5.55;2.70;;;16.30;95.40;;;;;;5015349;28;20095;-52
2023/03/23 14:26:22;;;;;;;5.97;3.03;;;16.20;95.80;;;;;;5014546;28;20030;-48
2023/03/23 14:29:11;;;;;;;5.05;2.88;;;16.10;95.90;;;;;;5015961;28;20042;-52
2023/03/23 14:31:58;;;;;;;6.60;3.00;;;16.10;96.10;;;;;;5015539;28;20041;-50
2023/03/23 14:34:47;;;;;;;3.80;3.10;;;15.80;96.40;;;;;;5014019;28;20081;-51
2023/03/23 14:37:35;;;;;;;3.60;2.90;;;15.80;96.60;;;;;;5014490;28;20376;-56
2023/03/23 14:40:21;;;;;;;6.68;4.25;;;15.80;96.80;;;;;;5013928;28;20641;-49
2023/03/23 14:43:11;;;;;;;5.15;2.88;;;15.70;96.90;;;;;;5015358;28;20064;-54
2023/03/23 14:46:01;;;;;;;2.95;2.60;;;15.70;96.90;;;;;;5014471;28;20061;-54
2023/03/23 14:48:47;;;;;;;3.28;2.53;;;15.70;96.90;;;;;;5010565;28;20478;-54
2023/03/23 14:51:33;;;;;;;6.40;2.80;;;15.70;97.10;;;;;;5005872;28;20399;-57